Time;durP1;ratioP1;P1;durP2;ratioP2;P2;SDS_P1;SDS_P2;PMS_P1;PMS_P2;Temp;Humidity;BMP_temperature;BMP_pressure;BME280_temperature;BME280_humidity;BME280_pressure;Samples;Min_cycle;Max_cycle;Signal;HPM_P1;HPM_P2
2022/08/01 02:47:58;;;;;;;1.90;0.70;;;20.70;73.20;;;;;;5129701;23;94472;-71
2022/08/01 02:50:31;;;;;;;2.65;0.80;;;20.70;73.40;;;;;;5072841;27;1428299;-71
2022/08/01 02:52:59;;;;;;;2.30;0.63;;;20.70;73.20;;;;;;5098089;27;81298;-69
2022/08/01 02:55:26;;;;;;;2.72;0.70;;;20.70;74.20;;;;;;5094442;27;81438;-70
2022/08/01 02:57:54;;;;;;;2.67;0.70;;;20.80;74.70;;;;;;5068124;27;82259;-70
2022/08/01 03:00:21;;;;;;;3.55;0.73;;;20.70;75.50;;;;;;5063188;27;81939;-74
2022/08/01 03:02:50;;;;;;;2.03;0.82;;;20.70;75.50;;;;;;5071711;27;82563;-71
2022/08/01 03:05:17;;;;;;;1.77;0.73;;;20.70;76.10;;;;;;5076535;27;81922;-70
2022/08/01 03:07:43;;;;;;;2.00;0.60;;;20.60;76.80;;;;;;5073816;27;81594;-72
2022/08/01 03:10:10;;;;;;;2.28;0.73;;;20.50;76.00;;;;;;5068860;27;81847;-70
2022/08/01 03:12:38;;;;;;;1.95;0.63;;;20.50;74.90;;;;;;5075921;27;81451;-70
2022/08/01 03:15:05;;;;;;;4.38;0.60;;;20.40;76.10;;;;;;5061382;27;81617;-69
2022/08/01 03:17:33;;;;;;;5.28;0.60;;;20.40;76.20;;;;;;5069955;27;81753;-71
2022/08/01 03:20:02;;;;;;;2.17;0.73;;;20.40;76.00;;;;;;5060007;27;81588;-70
2022/08/01 03:22:30;;;;;;;2.67;0.70;;;20.40;76.50;;;;;;5064333;27;83287;-73
2022/08/01 03:24:59;;;;;;;1.85;0.60;;;20.20;77.50;;;;;;5073306;27;81541;-70
2022/08/01 03:27:25;;;;;;;3.45;0.70;;;20.20;77.10;;;;;;5063409;27;81376;-71
2022/08/01 03:29:53;;;;;;;2.30;0.40;;;20.30;76.80;;;;;;5075141;27;81354;-73
2022/08/01 03:32:20;;;;;;;4.28;0.80;;;20.20;76.70;;;;;;5076836;27;81502;-69
2022/08/01 03:34:46;;;;;;;3.60;0.60;;;20.30;77.30;;;;;;5074654;27;82068;-71
2022/08/01 03:37:21;;;;;;;1.45;0.63;;;20.20;76.80;;;;;;5076503;27;81612;-70
2022/08/01 03:40:04;;;;;;;3.83;0.57;;;20.20;76.90;;;;;;5076132;27;81733;-71
2022/08/01 03:42:38;;;;;;;4.13;0.63;;;20.20;77.80;;;;;;5074989;27;81595;-70
2022/08/01 03:45:09;;;;;;;3.03;0.75;;;20.30;77.80;;;;;;5075993;27;81627;-67
2022/08/01 03:47:35;;;;;;;1.75;0.60;;;20.30;77.70;;;;;;5060836;27;82107;-67
2022/08/01 03:50:03;;;;;;;1.65;0.68;;;20.20;77.40;;;;;;5054026;27;81800;-67
2022/08/01 03:52:31;;;;;;;2.67;0.70;;;20.10;76.60;;;;;;5054505;27;82250;-69
2022/08/01 03:55:02;;;;;;;1.42;0.55;;;20.10;77.60;;;;;;5054140;27;81085;-69
2022/08/01 03:57:29;;;;;;;2.28;0.50;;;20.20;78.20;;;;;;5053541;27;86284;-68
2022/08/01 03:59:59;;;;;;;1.85;0.55;;;20.30;77.60;;;;;;5052503;27;81512;-70
2022/08/01 04:02:26;;;;;;;1.55;0.50;;;20.20;77.10;;;;;;5036865;27;83009;-70
2022/08/01 04:04:53;;;;;;;3.08;0.70;;;20.30;76.40;;;;;;5037613;28;81466;-68
2022/08/01 04:07:30;;;;;;;2.25;0.60;;;20.30;77.40;;;;;;5035156;27;81724;-67
2022/08/01 04:09:56;;;;;;;2.13;0.77;;;20.30;77.70;;;;;;5037182;28;81583;-67
2022/08/01 04:12:22;;;;;;;1.95;0.75;;;20.30;77.80;;;;;;5039994;27;81523;-68
2022/08/01 04:14:48;;;;;;;3.55;0.73;;;20.30;77.30;;;;;;5036885;27;81592;-69
2022/08/01 04:17:15;;;;;;;2.67;0.90;;;20.30;77.10;;;;;;5037772;27;81650;-69
2022/08/01 04:19:42;;;;;;;2.05;0.88;;;20.20;78.90;;;;;;5038742;28;82575;-67
2022/08/01 04:22:10;;;;;;;2.92;0.70;;;20.00;79.70;;;;;;5040097;28;81417;-70
2022/08/01 04:24:37;;;;;;;1.95;0.60;;;20.00;79.70;;;;;;5041041;28;81443;-67
2022/08/01 04:27:09;;;;;;;5.72;0.80;;;20.20;80.20;;;;;;5039691;28;81990;-69
2022/08/01 04:29:36;;;;;;;4.10;0.75;;;20.30;80.20;;;;;;5040062;27;82260;-70
2022/08/01 04:32:03;;;;;;;1.67;0.60;;;20.50;78.90;;;;;;5039557;27;81545;-69
2022/08/01 04:34:32;;;;;;;4.50;1.20;;;20.80;79.10;;;;;;5041615;28;81190;-67
2022/08/01 04:37:00;;;;;;;4.07;0.63;;;20.60;79.40;;;;;;5039649;27;82118;-68
2022/08/01 04:39:30;;;;;;;1.85;0.80;;;20.70;78.50;;;;;;5040195;27;81615;-70
2022/08/01 04:41:57;;;;;;;4.88;0.82;;;20.90;77.50;;;;;;5039041;28;81364;-71
2022/08/01 04:44:23;;;;;;;2.60;0.93;;;21.30;76.80;;;;;;5038889;27;81554;-67
2022/08/01 04:46:50;;;;;;;3.08;0.70;;;22.00;75.60;;;;;;5039733;27;82306;-71
2022/08/01 04:49:16;;;;;;;3.88;0.80;;;22.60;75.10;;;;;;5039828;28;82396;-70
2022/08/01 04:51:57;;;;;;;4.53;0.88;;;23.40;72.80;;;;;;5038665;28;82316;-68
2022/08/01 04:54:24;;;;;;;3.63;0.80;;;23.40;71.20;;;;;;5028788;28;81742;-69
2022/08/01 04:56:53;;;;;;;3.10;0.70;;;23.60;71.50;;;;;;5039739;27;82058;-68
2022/08/01 05:02:03;;;;;;;2.08;0.65;;;24.00;69.50;;;;;;5039710;28;81848;-69
2022/08/01 05:04:29;;;;;;;3.72;1.05;;;24.30;69.00;;;;;;5039715;28;83440;-70
2022/08/01 05:06:55;;;;;;;2.30;1.02;;;24.90;66.20;;;;;;5036193;28;81805;-69
2022/08/01 05:09:20;;;;;;;3.50;0.80;;;25.20;65.60;;;;;;5020165;28;82075;-71
2022/08/01 05:11:46;;;;;;;2.03;0.70;;;26.00;66.40;;;;;;5031441;27;82669;-71
2022/08/01 05:14:12;;;;;;;5.28;0.93;;;27.10;62.90;;;;;;5040296;28;81449;-69
2022/08/01 05:16:37;;;;;;;3.00;0.93;;;28.00;59.90;;;;;;5038750;28;81473;-69
2022/08/01 05:19:03;;;;;;;2.55;0.90;;;28.70;58.40;;;;;;5032617;28;82980;-70
2022/08/01 05:21:29;;;;;;;2.20;0.60;;;29.10;57.10;;;;;;5039123;28;81445;-71
2022/08/01 05:23:54;;;;;;;2.10;0.85;;;28.70;56.00;;;;;;5036746;28;81516;-69
2022/08/01 05:26:20;;;;;;;4.55;0.88;;;28.80;56.80;;;;;;5038790;28;81428;-75
2022/08/01 05:28:46;;;;;;;3.88;0.82;;;29.50;56.30;;;;;;5041865;27;81465;-68
2022/08/01 05:31:11;;;;;;;5.00;0.93;;;29.50;55.10;;;;;;5033842;28;81482;-68
2022/08/01 05:33:37;;;;;;;4.00;1.77;;;29.00;54.50;;;;;;5037273;28;81683;-70
2022/08/01 05:36:03;;;;;;;4.40;1.27;;;28.60;56.60;;;;;;5040073;28;81772;-68
2022/08/01 05:38:29;;;;;;;2.28;0.98;;;28.60;54.90;;;;;;5041581;27;81669;-69
2022/08/01 05:40:54;;;;;;;4.72;1.17;;;28.50;57.20;;;;;;5034271;28;81336;-71
2022/08/01 05:43:20;;;;;;;2.92;1.02;;;29.40;54.50;;;;;;5022637;28;82040;-69
2022/08/01 05:45:46;;;;;;;2.65;1.20;;;30.70;52.90;;;;;;5035150;28;81563;-69
2022/08/01 05:48:12;;;;;;;3.50;1.23;;;31.50;50.40;;;;;;5041414;27;81555;-69
2022/08/01 05:50:37;;;;;;;3.05;1.02;;;32.10;49.40;;;;;;5041124;28;81515;-70
2022/08/01 05:53:03;;;;;;;3.38;1.25;;;32.30;48.00;;;;;;5041817;27;81342;-69
2022/08/01 05:55:29;;;;;;;4.90;1.48;;;31.70;48.40;;;;;;5041722;28;82670;-68
2022/08/01 05:57:54;;;;;;;6.30;1.77;;;31.40;48.70;;;;;;5032115;28;82050;-69
2022/08/01 06:00:21;;;;;;;2.63;1.50;;;31.40;49.90;;;;;;5032922;28;81511;-71
2022/08/01 06:02:46;;;;;;;2.33;1.45;;;31.50;50.40;;;;;;5028991;28;81527;-70
2022/08/01 06:05:12;;;;;;;4.45;1.33;;;32.30;49.30;;;;;;5037729;28;81902;-69
2022/08/01 06:07:39;;;;;;;2.03;1.20;;;32.70;48.80;;;;;;5039853;28;83530;-69
2022/08/01 06:10:06;;;;;;;3.50;1.60;;;33.60;47.30;;;;;;5034928;27;81448;-72
2022/08/01 06:12:36;;;;;;;2.40;1.35;;;34.00;45.20;;;;;;5038425;28;81799;-69
2022/08/01 06:15:04;;;;;;;2.05;1.55;;;32.60;47.10;;;;;;5037433;28;81815;-69
2022/08/01 06:17:30;;;;;;;2.88;1.23;;;33.00;46.30;;;;;;5027042;28;82076;-69
2022/08/01 06:19:55;;;;;;;5.03;1.98;;;33.20;47.90;;;;;;5033391;28;81355;-71
2022/08/01 06:22:21;;;;;;;2.95;1.48;;;33.50;45.30;;;;;;5037860;28;81319;-74
2022/08/01 06:24:47;;;;;;;3.17;1.52;;;33.10;45.80;;;;;;5036847;28;82543;-71
2022/08/01 06:27:13;;;;;;;3.42;1.80;;;32.70;47.40;;;;;;5031673;28;81879;-71
2022/08/01 06:29:38;;;;;;;2.75;1.77;;;34.00;45.90;;;;;;5037347;28;81520;-68
2022/08/01 06:32:05;;;;;;;3.85;1.65;;;35.50;42.10;;;;;;5040036;27;81871;-70
2022/08/01 06:34:30;;;;;;;4.35;1.88;;;36.20;40.60;;;;;;5039980;28;82518;-73
2022/08/01 06:36:56;;;;;;;3.55;1.75;;;36.10;40.80;;;;;;5039810;28;81883;-74
2022/08/01 06:39:21;;;;;;;2.83;1.58;;;37.10;40.90;;;;;;5038046;28;81707;-69
2022/08/01 06:41:47;;;;;;;3.20;1.73;;;38.90;39.20;;;;;;5033692;28;81613;-73
2022/08/01 06:44:13;;;;;;;4.68;1.98;;;39.50;39.50;;;;;;5039342;28;81569;-69
2022/08/01 06:46:39;;;;;;;3.63;1.67;;;40.40;37.40;;;;;;5036369;28;81509;-73
2022/08/01 06:49:04;;;;;;;4.70;1.67;;;39.90;38.30;;;;;;5038480;28;81633;-72
2022/08/01 06:51:30;;;;;;;3.03;2.15;;;38.80;39.30;;;;;;5038510;28;81662;-72
2022/08/01 06:53:56;;;;;;;2.92;1.90;;;39.10;37.80;;;;;;5038967;28;82578;-74
2022/08/01 06:56:22;;;;;;;3.60;1.42;;;38.40;40.20;;;;;;5035313;28;82110;-71
2022/08/01 06:58:48;;;;;;;1.80;1.55;;;39.70;39.40;;;;;;5037647;28;81947;-71
2022/08/01 07:01:14;;;;;;;2.90;2.38;;;41.30;36.60;;;;;;5038507;27;82017;-70
2022/08/01 07:03:40;;;;;;;3.80;1.63;;;42.10;35.80;;;;;;5037014;27;84093;-73
2022/08/01 07:06:05;;;;;;;3.20;1.67;;;43.00;35.70;;;;;;5036537;27;83379;-71
2022/08/01 07:08:31;;;;;;;4.68;2.33;;;43.80;34.00;;;;;;5033845;27;82852;-75
2022/08/01 07:10:59;;;;;;;3.10;2.25;;;44.40;34.40;;;;;;5036400;28;81745;-71
2022/08/01 07:13:26;;;;;;;5.60;2.72;;;43.80;32.90;;;;;;5038366;27;81905;-74
2022/08/01 07:15:53;;;;;;;3.65;3.35;;;43.80;33.40;;;;;;5036606;28;82152;-75
2022/08/01 07:18:19;;;;;;;4.25;3.00;;;43.50;33.60;;;;;;5037309;27;82250;-77
2022/08/01 07:20:45;;;;;;;3.38;2.42;;;44.70;31.90;;;;;;5033036;27;81837;-72
2022/08/01 07:23:12;;;;;;;6.40;2.47;;;45.80;31.40;;;;;;5017441;28;82133;-74
2022/08/01 07:25:38;;;;;;;3.80;3.33;;;45.60;31.40;;;;;;5028224;28;82118;-73
2022/08/01 07:28:04;;;;;;;4.10;3.17;;;45.80;31.30;;;;;;5036606;28;81938;-73
2022/08/01 07:30:30;;;;;;;4.10;3.75;;;46.10;31.20;;;;;;5035547;28;82853;-74
2022/08/01 07:32:56;;;;;;;6.90;2.17;;;46.80;31.20;;;;;;5037723;27;82006;-72
2022/08/01 07:35:22;;;;;;;5.32;3.00;;;46.90;30.90;;;;;;5035608;27;82274;-71
2022/08/01 07:37:48;;;;;;;4.10;3.22;;;46.70;30.20;;;;;;5040277;28;81854;-72
2022/08/01 07:40:14;;;;;;;3.20;2.90;;;46.20;30.20;;;;;;5039768;27;82002;-72
2022/08/01 07:42:43;;;;;;;4.25;3.28;;;46.20;30.70;;;;;;5039031;28;84058;-72
2022/08/01 07:45:09;;;;;;;5.25;2.90;;;46.30;30.60;;;;;;5041161;28;82358;-75
2022/08/01 07:47:35;;;;;;;4.47;3.45;;;46.70;30.00;;;;;;5041651;27;83238;-71
2022/08/01 07:50:03;;;;;;;4.10;3.47;;;47.00;30.10;;;;;;5040670;28;82083;-75
2022/08/01 07:52:30;;;;;;;4.00;2.83;;;47.20;29.70;;;;;;5040152;28;83619;-73
2022/08/01 07:54:56;;;;;;;3.78;3.40;;;47.00;29.80;;;;;;5030232;28;84175;-73
2022/08/01 07:57:23;;;;;;;5.82;3.90;;;46.50;31.40;;;;;;5038901;28;85130;-74
2022/08/01 07:59:49;;;;;;;4.82;3.65;;;46.50;30.90;;;;;;5040346;28;81864;-75
2022/08/01 08:02:14;;;;;;;4.30;3.90;;;48.10;30.40;;;;;;5039144;28;82417;-73
2022/08/01 08:04:41;;;;;;;4.75;4.35;;;49.00;29.60;;;;;;5039439;28;81866;-70
2022/08/01 08:07:07;;;;;;;3.78;3.45;;;48.90;28.70;;;;;;5040126;27;82335;-74
2022/08/01 08:09:32;;;;;;;4.03;3.70;;;48.50;29.10;;;;;;5039896;28;81686;-79
2022/08/01 08:11:58;;;;;;;4.75;4.32;;;49.80;28.40;;;;;;5033215;28;82212;-73
2022/08/01 08:14:24;;;;;;;6.72;5.32;;;50.00;28.80;;;;;;5023814;27;83197;-75
2022/08/01 08:16:50;;;;;;;11.20;4.97;;;50.50;28.60;;;;;;5034023;28;82565;-73
2022/08/01 08:19:16;;;;;;;4.47;4.07;;;50.70;28.90;;;;;;5039645;28;82778;-72
2022/08/01 08:21:42;;;;;;;6.10;5.47;;;50.10;29.00;;;;;;5033255;27;82746;-73
2022/08/01 08:24:21;;;;;;;6.25;5.75;;;49.40;29.80;;;;;;5032318;28;82509;-77
2022/08/01 08:26:54;;;;;;;4.07;3.63;;;50.00;29.00;;;;;;5027916;28;82027;-78
2022/08/01 08:29:21;;;;;;;6.30;5.57;;;50.20;28.80;;;;;;5034498;28;82011;-73
2022/08/01 08:31:47;;;;;;;9.27;5.43;;;51.00;28.70;;;;;;5040095;27;82204;-73
2022/08/01 08:34:13;;;;;;;8.18;6.25;;;50.80;28.80;;;;;;5040197;27;81950;-74
2022/08/01 08:36:39;;;;;;;7.65;5.57;;;50.70;29.80;;;;;;5034246;28;81720;-73
2022/08/01 08:39:05;;;;;;;7.32;6.72;;;49.80;29.70;;;;;;5020176;28;81950;-76
2022/08/01 08:41:32;;;;;;;6.35;5.78;;;51.10;29.50;;;;;;5039804;28;82230;-72
2022/08/01 08:43:59;;;;;;;6.15;5.63;;;51.50;29.40;;;;;;5037797;27;84280;-73
2022/08/01 08:46:27;;;;;;;6.53;5.22;;;52.10;29.30;;;;;;5038863;27;85483;-71
2022/08/01 08:48:54;;;;;;;7.93;5.93;;;52.10;28.80;;;;;;5037916;27;81974;-74
2022/08/01 08:51:23;;;;;;;6.72;6.13;;;50.80;29.00;;;;;;5039844;27;82077;-72
2022/08/01 08:53:51;;;;;;;8.98;8.18;;;51.90;28.40;;;;;;5039895;27;81908;-76
2022/08/01 08:56:18;;;;;;;7.07;6.55;;;51.70;29.10;;;;;;5038644;27;81951;-77
2022/08/01 08:58:45;;;;;;;8.65;7.95;;;51.70;28.10;;;;;;5039234;28;81899;-71
2022/08/01 09:01:12;;;;;;;7.95;7.20;;;51.90;28.60;;;;;;5040688;28;82144;-73
2022/08/01 09:03:39;;;;;;;6.43;5.90;;;52.20;28.20;;;;;;5038054;27;82268;-80
2022/08/01 09:06:05;;;;;;;7.32;6.72;;;52.80;27.90;;;;;;5039693;28;81914;-74
2022/08/01 09:08:32;;;;;;;8.40;7.68;;;53.10;27.70;;;;;;5032663;28;83101;-74
2022/08/01 09:10:57;;;;;;;6.70;6.15;;;52.70;27.70;;;;;;5039252;28;81877;-78
2022/08/01 09:13:23;;;;;;;8.15;7.50;;;51.90;28.00;;;;;;5038321;28;82442;-71
2022/08/01 09:15:53;;;;;;;8.20;7.13;;;52.10;28.00;;;;;;5038712;28;82380;-75
2022/08/01 09:18:34;;;;;;;8.30;7.60;;;52.50;28.30;;;;;;5039207;28;82068;-79
2022/08/01 09:21:06;;;;;;;9.20;8.48;;;53.10;27.40;;;;;;5039628;28;81834;-74
2022/08/01 09:23:47;;;;;;;10.25;9.18;;;53.40;26.90;;;;;;5037797;28;82202;-74
2022/08/01 09:26:18;;;;;;;8.43;7.70;;;52.90;27.60;;;;;;5029848;27;82703;-76
2022/08/01 09:28:45;;;;;;;7.90;7.30;;;53.40;27.50;;;;;;5031923;28;82520;-71
2022/08/01 09:31:17;;;;;;;10.10;9.32;;;54.10;26.50;;;;;;5039636;27;81910;-74
2022/08/01 09:34:03;;;;;;;8.82;8.15;;;53.00;26.40;;;;;;5038386;27;82828;-75
2022/08/01 09:36:57;;;;;;;8.43;7.72;;;53.30;26.80;;;;;;5036955;28;84896;-71
2022/08/01 09:39:26;;;;;;;8.27;7.45;;;53.70;26.20;;;;;;5038416;28;81895;-73
2022/08/01 09:41:53;;;;;;;7.38;6.68;;;53.60;26.00;;;;;;5036149;27;82654;-75
2022/08/01 09:44:20;;;;;;;8.70;8.10;;;54.00;26.10;;;;;;5037641;28;82592;-71
2022/08/01 09:46:55;;;;;;;6.57;5.95;;;52.50;26.70;;;;;;5038090;28;81986;-72
2022/08/01 09:49:29;;;;;;;7.35;6.55;;;51.50;27.00;;;;;;5038897;27;82077;-75
2022/08/01 09:51:56;;;;;;;8.65;7.95;;;51.10;28.00;;;;;;5038500;28;81411;-73
2022/08/01 09:54:30;;;;;;;8.95;8.20;;;52.10;27.30;;;;;;5038827;27;82410;-79
2022/08/01 09:57:18;;;;;;;6.63;6.10;;;53.30;26.80;;;;;;5037524;28;81969;-73
2022/08/01 09:59:48;;;;;;;6.63;6.13;;;53.50;27.20;;;;;;5037442;27;82722;-77
2022/08/01 10:02:26;;;;;;;6.85;6.35;;;54.40;26.70;;;;;;5034767;28;82126;-73
2022/08/01 10:04:52;;;;;;;8.98;8.25;;;54.70;26.80;;;;;;5037044;27;81995;-73
2022/08/01 10:07:19;;;;;;;8.60;7.90;;;54.90;26.20;;;;;;5037912;27;82004;-75
2022/08/01 10:09:46;;;;;;;9.15;8.40;;;53.40;26.80;;;;;;5035799;28;81922;-78
2022/08/01 10:12:20;;;;;;;7.60;6.90;;;52.60;26.70;;;;;;5038530;28;81940;-74
2022/08/01 10:14:51;;;;;;;6.60;5.97;;;52.90;26.20;;;;;;5037353;28;82667;-74
2022/08/01 10:17:19;;;;;;;7.72;7.07;;;51.00;27.00;;;;;;5038957;27;81705;-73
2022/08/01 10:19:46;;;;;;;6.65;6.10;;;47.70;29.00;;;;;;5035428;28;81937;-73
2022/08/01 10:22:16;;;;;;;5.75;5.32;;;45.50;29.80;;;;;;5037368;27;82167;-71
2022/08/01 10:24:46;;;;;;;6.88;6.28;;;42.70;32.20;;;;;;5037657;28;84628;-74
2022/08/01 10:27:13;;;;;;;6.03;4.85;;;41.50;31.70;;;;;;5037792;27;83056;-73
2022/08/01 10:30:09;;;;;;;4.47;4.05;;;39.70;34.50;;;;;;5036608;28;82174;-74
2022/08/01 10:32:36;;;;;;;3.50;3.20;;;38.30;34.90;;;;;;5034940;27;82455;-75
2022/08/01 10:35:05;;;;;;;4.13;3.33;;;37.50;37.20;;;;;;5030334;28;83272;-74
2022/08/01 10:37:34;;;;;;;3.65;3.08;;;36.60;35.70;;;;;;5025777;28;82531;-77
2022/08/01 10:40:01;;;;;;;3.97;2.95;;;35.30;38.60;;;;;;5022745;27;84213;-73
2022/08/01 10:42:27;;;;;;;2.92;1.98;;;34.50;39.00;;;;;;5031830;28;82210;-75
2022/08/01 10:44:54;;;;;;;3.95;2.13;;;33.80;42.00;;;;;;5033891;28;82186;-70
2022/08/01 10:47:38;;;;;;;2.58;1.95;;;33.00;43.00;;;;;;5024009;28;81845;-71
2022/08/01 10:50:19;;;;;;;3.15;1.85;;;32.60;43.20;;;;;;5024620;28;84720;-71
2022/08/01 10:53:12;;;;;;;3.65;2.08;;;32.90;43.70;;;;;;5039504;28;82010;-71
2022/08/01 10:56:09;;;;;;;2.22;1.52;;;32.10;44.70;;;;;;5039454;27;83053;-73
2022/08/01 10:58:37;;;;;;;4.57;2.22;;;32.00;45.70;;;;;;5017633;28;82455;-71
2022/08/01 11:01:22;;;;;;;2.78;1.70;;;31.90;46.20;;;;;;5027826;28;81850;-71
2022/08/01 11:04:10;;;;;;;3.15;1.88;;;32.00;46.10;;;;;;5020701;28;81945;-72
2022/08/01 11:06:46;;;;;;;5.30;2.00;;;31.90;45.90;;;;;;5031527;28;82902;-73
2022/08/01 11:09:15;;;;;;;4.07;2.15;;;31.40;48.60;;;;;;5038854;27;81914;-74
2022/08/01 11:12:05;;;;;;;;;;;31.20;48.50;;;;;;5025701;28;81502;-71
2022/08/01 11:14:32;;;;;;;2.42;1.58;;;31.00;47.90;;;;;;5019977;28;82739;-72
2022/08/01 11:17:34;;;;;;;3.05;2.00;;;31.10;46.50;;;;;;5043386;28;83193;-72
2022/08/01 11:20:07;;;;;;;3.65;2.05;;;30.90;47.90;;;;;;5043565;27;82425;-69
2022/08/01 11:23:04;;;;;;;3.75;1.70;;;31.00;51.10;;;;;;5037770;27;82517;-69
2022/08/01 11:25:36;;;;;;;3.05;1.83;;;31.00;50.20;;;;;;5028003;28;82351;-72
2022/08/01 11:28:14;;;;;;;2.67;1.65;;;30.80;49.00;;;;;;5042690;27;82238;-73
2022/08/01 11:30:40;;;;;;;2.38;1.50;;;30.70;48.20;;;;;;5043087;27;81888;-71
2022/08/01 11:33:07;;;;;;;18.05;3.00;;;30.80;49.70;;;;;;5040018;28;83554;-68
2022/08/01 11:35:34;;;;;;;2.97;1.75;;;30.70;50.90;;;;;;5042763;28;81454;-69
2022/08/01 11:38:29;;;;;;;8.00;2.80;;;30.90;49.00;;;;;;5042526;27;82135;-72
2022/08/01 11:41:17;;;;;;;4.20;1.63;;;31.30;49.50;;;;;;5042277;28;82333;-71
2022/08/01 11:44:07;;;;;;;3.15;1.50;;;31.00;47.90;;;;;;5022777;28;82880;-70
2022/08/01 11:46:59;;;;;;;2.25;1.23;;;30.70;49.90;;;;;;5037063;28;81708;-71
2022/08/01 11:49:31;;;;;;;2.88;1.63;;;30.60;49.80;;;;;;5037495;28;82533;-70
2022/08/01 11:52:33;;;;;;;5.03;1.42;;;30.40;52.10;;;;;;5041220;27;81957;-71
2022/08/01 11:55:09;;;;;;;2.65;0.98;;;30.60;50.40;;;;;;5044458;27;82368;-70
2022/08/01 11:57:36;;;;;;;2.30;1.42;;;30.70;47.90;;;;;;5043097;28;81886;-69
2022/08/01 12:00:13;;;;;;;4.75;1.33;;;30.70;48.00;;;;;;5033386;27;82049;-70
2022/08/01 12:02:39;;;;;;;2.75;1.75;;;30.40;49.50;;;;;;5044005;28;82143;-74
2022/08/01 12:05:11;;;;;;;3.05;1.30;;;30.60;49.10;;;;;;5042062;28;83504;-68
2022/08/01 12:07:38;;;;;;;3.25;1.85;;;30.80;50.80;;;;;;5043457;27;82209;-68
2022/08/01 12:10:05;;;;;;;4.22;1.67;;;30.60;52.00;;;;;;5041329;28;82785;-69
2022/08/01 12:12:32;;;;;;;3.55;1.40;;;30.40;48.50;;;;;;5043051;28;82131;-69
2022/08/01 12:15:00;;;;;;;2.20;1.23;;;30.50;50.30;;;;;;5043086;28;81879;-70
2022/08/01 12:17:46;;;;;;;1.98;1.27;;;30.40;48.10;;;;;;5042480;27;81919;-71
2022/08/01 12:20:20;;;;;;;3.45;1.38;;;30.50;46.00;;;;;;5042101;28;82143;-69
2022/08/01 12:22:46;;;;;;;3.38;1.08;;;30.50;48.30;;;;;;5042016;27;81997;-70
2022/08/01 12:25:16;;;;;;;3.25;1.05;;;30.20;49.00;;;;;;5043318;27;81944;-69
2022/08/01 12:27:44;;;;;;;2.05;1.42;;;30.30;47.80;;;;;;5042392;27;81763;-70
2022/08/01 12:30:12;;;;;;;2.80;1.42;;;30.20;49.80;;;;;;5039788;27;81934;-68
2022/08/01 12:32:40;;;;;;;3.47;1.25;;;30.20;47.90;;;;;;5035510;27;82701;-68
2022/08/01 12:35:10;;;;;;;2.60;1.05;;;30.30;49.10;;;;;;5041780;27;82896;-72
2022/08/01 12:37:37;;;;;;;4.63;0.80;;;30.40;47.90;;;;;;5042705;27;81978;-69
2022/08/01 12:40:25;;;;;;;1.60;1.10;;;30.30;47.00;;;;;;5040702;28;81853;-72
2022/08/01 12:42:55;;;;;;;2.90;1.17;;;30.30;46.30;;;;;;5040907;27;82713;-68
2022/08/01 12:45:27;;;;;;;2.28;0.90;;;30.30;46.40;;;;;;5033501;27;81930;-68
2022/08/01 12:47:54;;;;;;;1.65;0.93;;;30.50;46.30;;;;;;5022212;28;81874;-69
2022/08/01 12:50:22;;;;;;;1.95;1.42;;;30.40;45.50;;;;;;5025607;28;82102;-68
2022/08/01 12:52:50;;;;;;;2.80;1.65;;;30.10;47.50;;;;;;5040758;27;82852;-69
2022/08/01 12:55:20;;;;;;;3.13;1.27;;;30.20;50.20;;;;;;5042073;27;82012;-69
2022/08/01 12:57:50;;;;;;;3.17;1.50;;;30.00;47.50;;;;;;5041338;28;81925;-70
2022/08/01 13:00:21;;;;;;;3.35;1.80;;;30.00;48.50;;;;;;5036082;27;83254;-70
2022/08/01 13:02:48;;;;;;;2.63;1.38;;;30.00;47.40;;;;;;5040288;27;83341;-72
2022/08/01 13:05:14;;;;;;;2.42;1.38;;;30.00;49.90;;;;;;5036224;27;82617;-70
2022/08/01 13:07:49;;;;;;;3.22;1.42;;;30.40;47.70;;;;;;5042133;27;83215;-70
2022/08/01 13:10:27;;;;;;;2.28;0.98;;;30.60;49.60;;;;;;5041495;27;82476;-68
2022/08/01 13:12:56;;;;;;;3.17;1.45;;;30.40;46.90;;;;;;5042247;27;82371;-71
2022/08/01 13:15:31;;;;;;;2.50;1.55;;;30.40;49.50;;;;;;5039577;28;81949;-69
2022/08/01 13:17:58;;;;;;;;;;;30.60;48.50;;;;;;5043055;27;81779;-69
2022/08/01 13:20:35;;;;;;;2.53;1.40;;;30.70;47.50;;;;;;5042430;28;81726;-71
2022/08/01 13:23:18;;;;;;;2.15;1.15;;;30.50;49.50;;;;;;5042181;27;81989;-70
2022/08/01 13:25:48;;;;;;;1.55;0.93;;;30.70;48.70;;;;;;5041775;27;83517;-68
2022/08/01 13:28:16;;;;;;;2.13;1.42;;;30.70;46.20;;;;;;5041671;28;82671;-69
2022/08/01 13:30:51;;;;;;;2.35;1.30;;;30.70;49.60;;;;;;5036947;27;81911;-68
2022/08/01 13:33:17;;;;;;;2.10;1.38;;;30.80;47.20;;;;;;5021263;28;82546;-68
2022/08/01 13:35:43;;;;;;;4.35;1.45;;;30.90;45.50;;;;;;5021938;28;82350;-68
2022/08/01 13:38:08;;;;;;;5.28;1.55;;;30.80;45.80;;;;;;5021788;28;82002;-70
2022/08/01 13:40:34;;;;;;;3.58;1.23;;;30.80;45.10;;;;;;5028980;28;81929;-73
2022/08/01 13:43:00;;;;;;;1.50;0.95;;;30.80;46.70;;;;;;5042317;28;82876;-72
2022/08/01 13:45:25;;;;;;;2.67;1.45;;;30.70;45.90;;;;;;5041869;28;81659;-70
2022/08/01 13:47:51;;;;;;;2.97;1.27;;;30.40;45.80;;;;;;5021084;28;82097;-70
2022/08/01 13:50:17;;;;;;;2.75;1.15;;;30.30;48.00;;;;;;5020859;28;83131;-68
2022/08/01 13:52:42;;;;;;;2.17;1.02;;;30.10;50.10;;;;;;5021655;28;84319;-68
2022/08/01 13:55:08;;;;;;;3.25;1.45;;;30.20;46.60;;;;;;5021357;28;81875;-69
2022/08/01 13:57:34;;;;;;;2.67;2.10;;;30.40;46.20;;;;;;5027178;28;81949;-70
2022/08/01 14:00:00;;;;;;;1.92;1.13;;;30.50;46.40;;;;;;5041298;28;82710;-69
2022/08/01 14:02:26;;;;;;;1.50;0.93;;;30.30;46.10;;;;;;5041540;28;81867;-70
2022/08/01 14:04:54;;;;;;;3.67;1.00;;;30.20;49.10;;;;;;5037460;28;81919;-72
2022/08/01 14:07:20;;;;;;;1.60;1.05;;;30.30;49.30;;;;;;5021602;28;81552;-72
2022/08/01 14:09:46;;;;;;;8.98;1.70;;;30.20;47.20;;;;;;5020878;28;82166;-73
2022/08/01 14:12:11;;;;;;;2.85;1.10;;;30.20;48.10;;;;;;5032842;28;82944;-70
2022/08/01 14:14:38;;;;;;;17.10;2.90;;;30.40;48.80;;;;;;5039846;28;82807;-71
2022/08/01 14:17:04;;;;;;;2.50;1.25;;;30.60;47.70;;;;;;5041177;28;82054;-69
2022/08/01 14:19:30;;;;;;;3.53;0.90;;;30.70;46.90;;;;;;5041370;27;82494;-68
2022/08/01 14:21:56;;;;;;;2.47;1.15;;;30.60;46.30;;;;;;5040929;28;82358;-70
2022/08/01 14:24:23;;;;;;;2.53;1.33;;;30.60;45.80;;;;;;5026395;28;81902;-71
2022/08/01 14:26:49;;;;;;;1.95;0.98;;;30.30;47.60;;;;;;5021089;28;82518;-72
2022/08/01 14:29:15;;;;;;;2.88;1.40;;;30.30;45.40;;;;;;5027402;28;82363;-72
2022/08/01 14:31:40;;;;;;;3.42;1.40;;;30.20;46.10;;;;;;5023605;28;81806;-74
2022/08/01 14:34:06;;;;;;;2.05;1.17;;;30.30;46.00;;;;;;5038880;28;82274;-69
2022/08/01 14:36:32;;;;;;;1.98;1.25;;;30.20;46.10;;;;;;5040162;27;81907;-68
2022/08/01 14:38:58;;;;;;;1.42;0.75;;;30.20;45.70;;;;;;5035941;27;82998;-68
2022/08/01 14:41:24;;;;;;;1.98;1.10;;;30.30;45.60;;;;;;5026560;28;82339;-70
2022/08/01 14:43:50;;;;;;;3.47;1.20;;;30.40;44.90;;;;;;5020867;28;82304;-69
2022/08/01 14:46:15;;;;;;;3.78;1.38;;;30.50;46.50;;;;;;5020519;28;82826;-68
2022/08/01 14:48:41;;;;;;;3.22;1.25;;;30.60;46.30;;;;;;5026873;28;83818;-68
2022/08/01 14:51:07;;;;;;;2.58;1.25;;;30.40;45.80;;;;;;5032282;27;82042;-72
2022/08/01 14:53:34;;;;;;;2.05;1.08;;;30.40;45.50;;;;;;5040739;27;82536;-68
2022/08/01 14:56:01;;;;;;;4.07;1.38;;;30.20;45.60;;;;;;5041325;28;82491;-70
2022/08/01 14:58:26;;;;;;;3.05;0.95;;;30.40;46.40;;;;;;5040469;27;83275;-68
2022/08/01 15:00:55;;;;;;;2.72;1.33;;;30.40;46.70;;;;;;5039778;28;81892;-69
2022/08/01 15:03:21;;;;;;;;;;;30.50;48.40;;;;;;5039331;27;82840;-68
2022/08/01 15:05:46;;;;;;;3.53;1.35;;;30.40;47.20;;;;;;5026322;27;81910;-70
2022/08/01 15:08:12;;;;;;;2.10;1.17;;;30.50;46.10;;;;;;5040671;28;83892;-68
2022/08/01 15:10:38;;;;;;;3.03;1.10;;;30.40;46.90;;;;;;5040467;28;83357;-72
2022/08/01 15:13:04;;;;;;;2.90;1.17;;;30.20;46.90;;;;;;5041091;28;81908;-68
2022/08/01 15:15:29;;;;;;;3.00;0.88;;;30.30;46.30;;;;;;5038109;28;81964;-69
2022/08/01 15:17:56;;;;;;;2.00;1.20;;;30.30;46.00;;;;;;5038022;28;82168;-69
2022/08/01 15:20:21;;;;;;;6.03;1.25;;;30.40;45.70;;;;;;5040073;27;81831;-70
2022/08/01 15:22:48;;;;;;;1.98;1.08;;;30.40;45.50;;;;;;5037742;27;82015;-69
2022/08/01 15:25:14;;;;;;;2.75;1.25;;;30.10;46.80;;;;;;5031906;28;82261;-68
2022/08/01 15:27:40;;;;;;;2.60;1.23;;;29.90;46.00;;;;;;5032707;28;83475;-70
2022/08/01 15:30:07;;;;;;;1.88;1.02;;;29.90;48.20;;;;;;5023446;28;83855;-70
2022/08/01 15:32:33;;;;;;;1.65;0.85;;;30.10;46.20;;;;;;5019130;28;82138;-71
2022/08/01 15:34:58;;;;;;;6.32;1.52;;;30.20;45.30;;;;;;5019986;28;82465;-71
2022/08/01 15:37:24;;;;;;;2.88;1.05;;;30.30;46.50;;;;;;5019901;28;82644;-70
2022/08/01 15:39:50;;;;;;;3.95;1.15;;;30.40;46.10;;;;;;5019956;28;82211;-74
2022/08/01 15:42:17;;;;;;;2.08;0.93;;;30.50;45.40;;;;;;5039351;28;81900;-68
2022/08/01 15:44:43;;;;;;;5.00;1.05;;;30.60;44.10;;;;;;5039999;28;81324;-69
2022/08/01 15:47:09;;;;;;;2.13;0.82;;;30.40;45.30;;;;;;5039443;28;83161;-70